Time,TemperatureF,DewpointF,PressureIn,WindDirection,WindDirectionDegrees,WindSpeedMPH,WindSpeedGustMPH,Humidity,HourlyPrecipIn,Conditions,Clouds,dailyrainin,SoftwareType,DateUTC
2013-01-23 00:08:00,9.5,9.5,29.97,NE,45,0.0,3.6,100,0.00,,,0.00,WSDL version 423,2013-01-23 05:08:00,
2013-01-23 00:18:00,9.3,9.3,29.96,NW,315,0.0,0.0,100,0.00,,,0.00,WSDL version 423,2013-01-23 05:18:00,
2013-01-23 00:28:00,9.1,9.1,29.96,NW,315,0.0,0.0,100,0.00,,,0.00,WSDL version 423,2013-01-23 05:28:00,
2013-01-23 00:38:00,8.9,8.9,29.96,West,270,0.0,0.0,100,0.00,,,0.00,WSDL version 423,2013-01-23 05:38:00,
2013-01-23 00:48:00,9.0,9.0,29.96,West,270,0.0,2.7,100,0.00,,,0.00,WSDL version 423,2013-01-23 05:48:00,
2013-01-23 00:58:00,8.8,8.8,29.96,West,270,0.0,0.0,100,0.00,,,0.00,WSDL version 423,2013-01-23 05:58:00,
2013-01-23 01:08:00,8.8,8.8,29.96,NNE,23,0.0,2.2,100,0.00,,,0.00,WSDL version 423,2013-01-23 06:08:00,
2013-01-23 01:18:00,8.5,8.5,29.96,North,357,0.0,4.0,100,0.00,,,0.00,WSDL version 423,2013-01-23 06:18:00,
2013-01-23 01:28:00,8.6,8.6,29.96,WSW,248,0.0,2.2,100,0.00,,,0.00,WSDL version 423,2013-01-23 06:28:00,
2013-01-23 01:38:00,8.6,8.6,29.96,WNW,299,0.0,3.6,100,0.00,,,0.00,WSDL version 423,2013-01-23 06:38:00,
2013-01-23 01:48:00,8.8,8.8,29.96,SW,225,0.0,3.6,100,0.00,,,0.00,WSDL version 423,2013-01-23 06:48:00,
2013-01-23 01:58:00,8.6,8.6,29.96,SW,225,0.0,2.7,100,0.00,,,0.00,WSDL version 423,2013-01-23 06:58:00,
2013-01-23 02:08:00,8.6,8.6,29.97,NW,315,0.0,5.4,100,0.00,,,0.00,WSDL version 423,2013-01-23 07:08:00,
2013-01-23 02:18:00,8.6,8.6,29.97,WNW,299,0.0,0.0,100,0.00,,,0.00,WSDL version 423,2013-01-23 07:18:00,
2013-01-23 02:28:00,8.4,8.4,29.98,WNW,293,0.0,0.0,100,0.00,,,0.00,WSDL version 423,2013-01-23 07:28:00,
2013-01-23 02:38:00,8.5,8.5,29.98,North,360,0.0,2.2,100,0.00,,,0.00,WSDL version 423,2013-01-23 07:38:00,
2013-01-23 02:48:00,8.3,8.3,29.98,NW,315,0.0,2.2,100,0.00,,,0.00,WSDL version 423,2013-01-23 07:48:00,
2013-01-23 02:58:00,8.1,8.1,29.98,WNW,293,0.0,0.0,100,0.00,,,0.00,WSDL version 423,2013-01-23 07:58:00,
2013-01-23 03:08:00,7.9,7.9,29.98,ENE,64,0.0,2.2,100,0.00,,,0.00,WSDL version 423,2013-01-23 08:08:00,
2013-01-23 03:18:00,7.8,7.8,29.98,ENE,68,0.0,0.0,100,0.00,,,0.00,WSDL version 423,2013-01-23 08:18:00,
2013-01-23 03:28:00,7.7,7.7,29.98,ESE,116,0.0,0.0,100,0.00,,,0.00,WSDL version 423,2013-01-23 08:28:00,
2013-01-23 03:38:00,7.5,7.5,29.98,SE,135,0.0,0.0,100,0.00,,,0.00,WSDL version 423,2013-01-23 08:38:00,
2013-01-23 03:48:00,7.2,7.2,29.98,SSE,158,0.0,0.0,100,0.00,,,0.00,WSDL version 423,2013-01-23 08:48:00,
2013-01-23 03:58:00,7.2,7.2,29.98,NNW,328,0.0,3.6,100,0.00,,,0.00,WSDL version 423,2013-01-23 08:58:00,
2013-01-23 04:09:00,7.2,7.2,29.98,West,270,0.0,0.0,100,0.00,,,0.00,WSDL version 423,2013-01-23 09:09:00,
2013-01-23 04:19:00,7.1,7.1,29.98,West,270,0.0,0.0,100,0.00,,,0.00,WSDL version 423,2013-01-23 09:19:00,
2013-01-23 04:29:00,7.2,7.2,29.98,West,270,0.0,3.6,100,0.00,,,0.00,WSDL version 423,2013-01-23 09:29:00,
2013-01-23 04:38:00,7.2,7.2,29.99,SSW,203,0.0,2.7,100,0.00,,,0.00,WSDL version 423,2013-01-23 09:38:00,
2013-01-23 04:49:00,7.4,7.4,29.99,WNW,298,0.0,3.6,100,0.00,,,0.00,WSDL version 423,2013-01-23 09:49:00,
2013-01-23 04:58:00,7.2,7.2,29.99,SE,145,0.0,4.0,100,0.00,,,0.00,WSDL version 423,2013-01-23 09:58:00,
2013-01-23 05:09:00,7.0,7.0,29.99,West,270,0.0,2.7,100,0.00,,,0.00,WSDL version 423,2013-01-23 10:09:00,
2013-01-23 05:19:00,7.0,7.0,29.99,West,270,0.0,5.4,100,0.00,,,0.00,WSDL version 423,2013-01-23 10:19:00,
2013-01-23 05:29:00,7.0,7.0,29.99,SW,215,0.0,2.7,100,0.00,,,0.00,WSDL version 423,2013-01-23 10:29:00,
2013-01-23 05:39:00,6.8,6.8,30.00,West,270,0.0,3.1,100,0.00,,,0.00,WSDL version 423,2013-01-23 10:39:00,
2013-01-23 05:49:00,6.8,6.8,30.00,WNW,298,0.0,3.1,100,0.00,,,0.00,WSDL version 423,2013-01-23 10:49:00,
2013-01-23 05:59:00,6.7,6.7,30.00,WSW,244,0.0,2.7,100,0.00,,,0.00,WSDL version 423,2013-01-23 10:59:00,
2013-01-23 06:08:00,6.4,6.4,30.00,West,270,0.0,0.0,100,0.00,,,0.00,WSDL version 423,2013-01-23 11:08:00,
2013-01-23 06:19:00,6.4,6.4,30.01,NW,315,0.0,3.1,100,0.00,,,0.00,WSDL version 423,2013-01-23 11:19:00,
2013-01-23 06:28:00,6.3,6.3,30.01,NNW,340,0.0,4.9,100,0.00,,,0.00,WSDL version 423,2013-01-23 11:28:00,
2013-01-23 06:39:00,6.3,6.3,30.01,WSW,251,0.0,4.9,100,0.00,,,0.00,WSDL version 423,2013-01-23 11:39:00,
2013-01-23 06:49:00,6.2,6.2,30.01,WSW,248,0.0,0.0,100,0.00,,,0.00,WSDL version 423,2013-01-23 11:49:00,
2013-01-23 06:59:00,6.1,6.1,30.02,WNW,302,0.0,2.7,100,0.00,,,0.00,WSDL version 423,2013-01-23 11:59:00,
2013-01-23 07:09:00,6.1,6.1,30.02,NNW,347,0.0,2.7,100,0.00,,,0.00,WSDL version 423,2013-01-23 12:09:00,
2013-01-23 07:19:00,5.9,5.9,30.02,ENE,68,0.0,0.0,100,0.00,,,0.00,WSDL version 423,2013-01-23 12:19:00,
2013-01-23 07:29:00,6.1,6.1,30.02,NE,45,0.0,3.6,100,0.00,,,0.00,WSDL version 423,2013-01-23 12:29:00,
2013-01-23 07:39:00,6.3,6.3,30.02,SW,225,0.0,4.0,100,0.00,,,0.00,WSDL version 423,2013-01-23 12:39:00,
2013-01-23 07:49:00,6.5,6.5,30.02,West,270,0.0,2.7,100,0.00,,,0.00,WSDL version 423,2013-01-23 12:49:00,
2013-01-23 07:59:00,6.9,6.9,30.03,West,270,0.0,0.0,100,0.00,,,0.00,WSDL version 423,2013-01-23 12:59:00,
2013-01-23 08:09:00,7.2,7.2,30.02,SSW,193,0.0,4.9,100,0.00,,,0.00,WSDL version 423,2013-01-23 13:09:00,
2013-01-23 08:19:00,7.7,7.7,30.02,WSW,248,0.0,6.3,100,0.00,,,0.00,WSDL version 423,2013-01-23 13:19:00,
2013-01-23 08:29:00,8.0,8.0,30.03,SSW,211,1.1,4.9,100,0.00,,,0.00,WSDL version 423,2013-01-23 13:29:00,
2013-01-23 08:39:00,8.4,8.4,30.03,WSW,258,0.0,7.2,100,0.00,,,0.00,WSDL version 423,2013-01-23 13:39:00,
2013-01-23 08:49:00,8.5,8.5,30.03,West,270,2.5,5.8,100,0.00,,,0.00,WSDL version 423,2013-01-23 13:49:00,
2013-01-23 08:59:00,8.6,8.6,30.03,WNW,287,0.0,3.1,100,0.00,,,0.00,WSDL version 423,2013-01-23 13:59:00,
2013-01-23 09:09:00,8.8,8.8,30.03,WNW,283,0.0,7.6,100,0.00,,,0.00,WSDL version 423,2013-01-23 14:09:00,
2013-01-23 09:19:00,9.7,9.7,30.03,SW,235,4.3,8.7,100,0.00,,,0.00,WSDL version 423,2013-01-23 14:19:00,
2013-01-23 09:29:00,9.8,9.8,30.03,WSW,248,2.0,8.1,100,0.00,,,0.00,WSDL version 423,2013-01-23 14:29:00,
2013-01-23 09:39:00,10.1,10.1,30.04,WNW,303,3.5,7.6,100,0.00,,,0.00,WSDL version 423,2013-01-23 14:39:00,
2013-01-23 09:49:00,10.8,10.8,30.03,SW,225,0.0,4.0,100,0.00,,,0.00,WSDL version 423,2013-01-23 14:49:00,
2013-01-23 09:59:00,11.2,11.2,30.03,North,349,0.0,5.4,100,0.00,,,0.00,WSDL version 423,2013-01-23 14:59:00,
2013-01-23 10:09:00,11.4,11.4,30.03,NNE,14,1.6,7.2,100,0.00,,,0.00,WSDL version 423,2013-01-23 15:09:00,
2013-01-23 10:19:00,11.6,11.6,30.03,WSW,250,2.2,5.8,100,0.00,,,0.00,WSDL version 423,2013-01-23 15:19:00,
2013-01-23 10:29:00,11.7,11.7,30.02,East,100,3.0,6.3,100,0.00,,,0.00,WSDL version 423,2013-01-23 15:29:00,
2013-01-23 10:39:00,12.7,12.7,30.02,SW,222,1.8,5.8,100,0.00,,,0.00,WSDL version 423,2013-01-23 15:39:00,
2013-01-23 10:49:00,12.7,12.7,30.02,WNW,295,3.6,8.1,100,0.00,,,0.00,WSDL version 423,2013-01-23 15:49:00,
2013-01-23 10:59:00,12.5,12.5,30.01,NNW,334,0.0,8.3,100,0.00,,,0.00,WSDL version 423,2013-01-23 15:59:00,
2013-01-23 11:09:00,13.7,13.7,30.01,SW,214,3.3,5.8,100,0.00,,,0.00,WSDL version 423,2013-01-23 16:09:00,
2013-01-23 11:19:00,13.6,13.6,30.00,ENE,60,3.6,7.2,100,0.00,,,0.00,WSDL version 423,2013-01-23 16:19:00,
2013-01-23 11:29:00,13.4,13.4,30.00,SSW,199,2.9,8.7,100,0.00,,,0.00,WSDL version 423,2013-01-23 16:29:00,
2013-01-23 11:39:00,14.0,14.0,30.00,NW,305,3.0,7.2,100,0.00,,,0.00,WSDL version 423,2013-01-23 16:39:00,
2013-01-23 11:49:00,14.2,14.2,29.99,NNE,23,1.2,4.9,100,0.00,,,0.00,WSDL version 423,2013-01-23 16:49:00,
2013-01-23 11:59:00,14.5,14.5,29.98,SW,233,2.4,6.7,100,0.00,,,0.00,WSDL version 423,2013-01-23 16:59:00,
2013-01-23 12:09:00,15.0,15.0,29.98,WNW,300,3.8,8.3,100,0.00,,,0.00,WSDL version 423,2013-01-23 17:09:00,
2013-01-23 12:19:00,15.0,15.0,29.98,NW,326,0.0,5.8,100,0.00,,,0.00,WSDL version 423,2013-01-23 17:19:00,
2013-01-23 12:29:00,15.1,15.1,29.97,WNW,287,1.1,9.2,100,0.00,,,0.00,WSDL version 423,2013-01-23 17:29:00,
2013-01-23 12:39:00,15.4,15.4,29.97,SW,233,2.5,5.8,100,0.00,,,0.00,WSDL version 423,2013-01-23 17:39:00,
2013-01-23 12:49:00,15.8,15.8,29.96,NNW,347,2.3,8.1,100,0.00,,,0.00,WSDL version 423,2013-01-23 17:49:00,
2013-01-23 12:59:00,15.4,15.4,29.96,North,360,2.6,6.3,100,0.00,,,0.00,WSDL version 423,2013-01-23 17:59:00,
2013-01-23 13:09:00,15.7,15.7,29.95,NNW,348,3.2,7.6,100,0.00,,,0.00,WSDL version 423,2013-01-23 18:09:00,
2013-01-23 13:19:00,16.1,16.1,29.95,NW,315,0.0,4.9,100,0.00,,,0.00,WSDL version 423,2013-01-23 18:19:00,
2013-01-23 13:29:00,16.5,16.5,29.95,North,8,2.8,6.3,100,0.00,,,0.00,WSDL version 423,2013-01-23 18:29:00,
2013-01-23 13:39:00,16.0,16.0,29.95,SSW,195,2.5,6.3,100,0.00,,,0.00,WSDL version 423,2013-01-23 18:39:00,
2013-01-23 13:49:00,15.9,15.9,29.96,NW,323,2.2,5.8,100,-99.99,,,-99.99,WSDL version 423,2013-01-23 18:49:00,
2013-01-23 13:59:00,16.4,16.4,29.96,WSW,245,2.0,8.1,100,0.00,,,0.00,WSDL version 423,2013-01-23 18:59:00,
2013-01-23 14:09:00,15.7,15.7,29.97,West,267,2.9,8.7,100,0.00,,,0.00,WSDL version 423,2013-01-23 19:09:00,
2013-01-23 14:19:00,15.1,15.1,29.96,SW,225,2.7,11.9,100,0.00,,,0.00,WSDL version 423,2013-01-23 19:19:00,
2013-01-23 14:29:00,14.8,14.8,29.97,NNW,338,0.8,7.6,100,0.00,,,0.00,WSDL version 423,2013-01-23 19:29:00,
2013-01-23 14:39:00,14.7,14.7,29.96,WNW,289,3.1,8.1,100,0.00,,,0.00,WSDL version 423,2013-01-23 19:39:00,
2013-01-23 14:49:00,14.9,14.9,29.96,West,270,0.0,7.6,100,0.00,,,0.00,WSDL version 423,2013-01-23 19:49:00,
2013-01-23 14:59:00,14.6,14.6,29.96,North,356,1.1,6.3,100,0.00,,,0.00,WSDL version 423,2013-01-23 19:59:00,
2013-01-23 15:09:00,14.1,14.1,29.97,West,266,2.9,9.6,100,0.00,,,0.00,WSDL version 423,2013-01-23 20:09:00,
2013-01-23 15:19:00,13.6,13.6,29.97,West,263,1.4,7.6,100,0.00,,,0.00,WSDL version 423,2013-01-23 20:19:00,
2013-01-23 15:29:00,13.5,13.5,29.97,South,174,0.0,5.8,100,0.00,,,0.00,WSDL version 423,2013-01-23 20:29:00,
2013-01-23 15:39:00,13.3,13.3,29.98,SE,132,1.8,5.8,100,0.00,,,0.00,WSDL version 423,2013-01-23 20:39:00,
2013-01-23 15:49:00,12.9,12.9,29.98,SSE,160,0.0,4.5,100,0.00,,,0.00,WSDL version 423,2013-01-23 20:49:00,
2013-01-23 15:59:00,12.5,12.5,29.98,North,8,0.0,7.2,100,0.00,,,0.00,WSDL version 423,2013-01-23 20:59:00,
2013-01-23 16:09:00,12.1,12.1,29.98,NW,309,2.5,3.6,100,0.00,,,0.00,WSDL version 423,2013-01-23 21:09:00,
2013-01-23 16:19:00,11.8,11.8,29.98,SW,225,1.3,7.2,100,0.00,,,0.00,WSDL version 423,2013-01-23 21:19:00,
2013-01-23 16:29:00,11.3,11.3,29.98,WNW,293,0.0,3.6,100,0.00,,,0.00,WSDL version 423,2013-01-23 21:29:00,
2013-01-23 16:39:00,10.9,10.9,29.99,West,270,0.0,3.1,100,0.00,,,0.00,WSDL version 423,2013-01-23 21:39:00,
2013-01-23 16:49:00,10.6,10.6,29.99,West,270,1.5,3.6,100,0.00,,,0.00,WSDL version 423,2013-01-23 21:49:00,
2013-01-23 16:59:00,10.2,10.2,29.99,West,270,0.0,4.0,100,0.00,,,0.00,WSDL version 423,2013-01-23 21:59:00,
2013-01-23 17:09:00,10.1,10.1,29.99,NNE,26,0.0,3.6,100,0.00,,,0.00,WSDL version 423,2013-01-23 22:09:00,
2013-01-23 17:19:00,9.8,9.8,30.00,WSW,251,0.0,4.0,100,0.00,,,0.00,WSDL version 423,2013-01-23 22:19:00,
2013-01-23 17:29:00,9.5,9.5,30.01,NNW,338,0.0,4.9,100,0.00,,,0.00,WSDL version 423,2013-01-23 22:29:00,
2013-01-23 17:39:00,9.3,9.3,30.01,West,270,0.0,4.0,100,0.00,,,0.00,WSDL version 423,2013-01-23 22:39:00,
2013-01-23 17:49:00,9.1,9.1,30.01,North,354,0.8,4.0,100,0.00,,,0.00,WSDL version 423,2013-01-23 22:49:00,
2013-01-23 17:59:00,9.0,9.0,30.01,NE,45,0.0,4.0,100,0.00,,,0.00,WSDL version 423,2013-01-23 22:59:00,
2013-01-23 18:09:00,8.8,8.8,30.01,North,360,0.0,3.6,100,0.00,,,0.00,WSDL version 423,2013-01-23 23:09:00,
2013-01-23 18:19:00,8.7,8.7,30.02,NW,315,0.0,2.2,100,0.00,,,0.00,WSDL version 423,2013-01-23 23:19:00,
2013-01-23 18:29:00,8.6,8.6,30.02,SW,231,0.0,0.0,100,0.00,,,0.00,WSDL version 423,2013-01-23 23:29:00,
2013-01-23 18:39:00,8.4,8.4,30.02,SW,225,0.0,4.5,100,0.00,,,0.00,WSDL version 423,2013-01-23 23:39:00,
2013-01-23 18:49:00,8.1,8.1,30.03,WSW,253,0.0,2.7,100,0.00,,,0.00,WSDL version 423,2013-01-23 23:49:00,
2013-01-23 18:59:00,7.9,7.9,30.02,WNW,288,0.0,3.1,100,0.00,,,0.00,WSDL version 423,2013-01-23 23:59:00,
2013-01-23 19:09:00,7.9,7.9,30.02,ENE,65,1.2,4.9,100,0.00,,,0.00,WSDL version 423,2013-01-24 00:09:00,
2013-01-23 19:19:00,7.9,7.9,30.03,North,8,0.0,4.0,100,0.00,,,0.00,WSDL version 423,2013-01-24 00:19:00,
2013-01-23 19:29:00,7.7,7.7,30.03,NW,315,0.0,2.2,100,0.00,,,0.00,WSDL version 423,2013-01-24 00:29:00,
2013-01-23 19:39:00,7.5,7.5,30.03,West,270,0.0,3.1,100,0.00,,,0.00,WSDL version 423,2013-01-24 00:39:00,
2013-01-23 19:49:00,7.2,7.2,30.03,West,270,0.0,0.0,100,0.00,,,0.00,WSDL version 423,2013-01-24 00:49:00,
2013-01-23 19:59:00,7.0,7.0,30.03,West,270,0.0,0.0,100,0.00,,,0.00,WSDL version 423,2013-01-24 00:59:00,
2013-01-23 20:09:00,6.6,6.6,30.03,NW,315,0.0,3.1,100,0.00,,,0.00,WSDL version 423,2013-01-24 01:09:00,
2013-01-23 20:19:00,6.8,6.8,30.03,East,90,0.0,2.2,100,0.00,,,0.00,WSDL version 423,2013-01-24 01:19:00,
2013-01-23 20:29:00,6.7,6.7,30.03,ENE,61,0.0,3.1,100,0.00,,,0.00,WSDL version 423,2013-01-24 01:29:00,
2013-01-23 20:39:00,6.8,6.8,30.03,NNW,343,0.0,3.1,100,0.00,,,0.00,WSDL version 423,2013-01-24 01:39:00,
2013-01-23 20:49:00,7.0,7.0,30.04,SW,225,0.0,3.1,100,0.00,,,0.00,WSDL version 423,2013-01-24 01:49:00,
2013-01-23 20:59:00,6.7,6.7,30.03,SW,225,1.2,4.5,100,0.00,,,0.00,WSDL version 423,2013-01-24 01:59:00,
2013-01-23 21:09:00,6.6,6.6,30.03,WNW,298,0.0,4.0,100,0.00,,,0.00,WSDL version 423,2013-01-24 02:09:00,
2013-01-23 21:19:00,6.4,6.4,30.04,WNW,284,0.0,4.0,100,0.00,,,0.00,WSDL version 423,2013-01-24 02:19:00,
2013-01-23 21:29:00,6.3,6.3,30.04,NW,315,0.0,2.7,100,0.00,,,0.00,WSDL version 423,2013-01-24 02:29:00,
2013-01-23 21:39:00,6.2,6.2,30.04,NNW,338,0.0,3.6,100,0.00,,,0.00,WSDL version 423,2013-01-24 02:39:00,
2013-01-23 21:49:00,6.0,6.0,30.03,NW,315,0.0,0.0,100,0.00,,,0.00,WSDL version 423,2013-01-24 02:49:00,
2013-01-23 21:59:00,5.9,5.9,30.04,North,360,0.0,0.0,100,0.00,,,0.00,WSDL version 423,2013-01-24 02:59:00,
2013-01-23 22:09:00,5.8,5.8,30.03,West,270,0.0,6.3,100,0.00,,,0.00,WSDL version 423,2013-01-24 03:09:00,
2013-01-23 22:19:00,5.5,5.5,30.03,West,270,0.0,2.7,100,0.00,,,0.00,WSDL version 423,2013-01-24 03:19:00,
2013-01-23 22:29:00,5.4,5.4,30.03,West,270,0.0,0.0,100,-99.99,,,-99.99,WSDL version 423,2013-01-24 03:29:00,
2013-01-23 22:39:00,5.1,5.1,30.02,West,270,0.0,0.0,100,0.00,,,0.00,WSDL version 423,2013-01-24 03:39:00,
2013-01-23 22:49:00,5.1,5.1,30.03,NE,45,0.0,3.1,100,0.00,,,0.00,WSDL version 423,2013-01-24 03:49:00,
2013-01-23 22:59:00,4.7,4.7,30.03,NE,48,0.0,2.7,100,0.00,,,0.00,WSDL version 423,2013-01-24 03:59:00,
2013-01-23 23:09:00,4.6,4.6,30.03,West,270,0.0,4.0,100,0.00,,,0.00,WSDL version 423,2013-01-24 04:09:00,
2013-01-23 23:19:00,4.3,4.3,30.03,West,270,0.0,0.0,100,0.00,,,0.00,WSDL version 423,2013-01-24 04:19:00,
2013-01-23 23:29:00,4.1,4.1,30.03,West,270,0.0,0.0,100,0.00,,,0.00,WSDL version 423,2013-01-24 04:29:00,
2013-01-23 23:39:00,3.9,3.9,30.03,West,270,0.0,0.0,100,0.00,,,0.00,WSDL version 423,2013-01-24 04:39:00,
2013-01-23 23:49:00,3.9,3.9,30.03,West,270,0.0,2.2,100,0.00,,,0.00,WSDL version 423,2013-01-24 04:49:00,
2013-01-23 23:59:00,3.8,3.8,30.03,West,270,0.0,2.2,100,0.00,,,0.00,WSDL version 423,2013-01-24 04:59:00,